sensor_id;sensor_type;location;lat;lon;timestamp;pressure;altitude;pressure_sealevel;temperature;humidity
32298;BME280;18782;48.984;8.548;2023-04-02T00:00:14;99192.06;;;9.58;87.39
32298;BME280;18782;48.984;8.548;2023-04-02T00:02:45;99181.00;;;9.62;88.03
32298;BME280;18782;48.984;8.548;2023-04-02T00:05:41;99187.69;;;9.51;88.16
32298;BME280;18782;48.984;8.548;2023-04-02T00:08:23;99192.75;;;9.48;89.29
32298;BME280;18782;48.984;8.548;2023-04-02T00:10:53;99192.66;;;9.42;89.21
32298;BME280;18782;48.984;8.548;2023-04-02T00:13:30;99188.34;;;9.41;89.99
32298;BME280;18782;48.984;8.548;2023-04-02T00:15:59;99193.34;;;9.33;90.90
32298;BME280;18782;48.984;8.548;2023-04-02T00:18:29;99192.47;;;9.33;91.14
32298;BME280;18782;48.984;8.548;2023-04-02T00:21:07;99193.22;;;9.26;91.28
32298;BME280;18782;48.984;8.548;2023-04-02T00:23:36;99198.44;;;9.30;91.43
32298;BME280;18782;48.984;8.548;2023-04-02T00:26:17;99204.06;;;9.09;91.99
32298;BME280;18782;48.984;8.548;2023-04-02T00:28:47;99198.88;;;9.06;93.37
32298;BME280;18782;48.984;8.548;2023-04-02T00:31:16;99202.91;;;8.94;94.21
32298;BME280;18782;48.984;8.548;2023-04-02T00:33:45;99198.81;;;9.03;94.87
32298;BME280;18782;48.984;8.548;2023-04-02T00:36:14;99203.97;;;9.03;94.35
32298;BME280;18782;48.984;8.548;2023-04-02T00:38:45;99197.69;;;8.89;95.18
32298;BME280;18782;48.984;8.548;2023-04-02T00:41:16;99201.13;;;8.89;95.76
32298;BME280;18782;48.984;8.548;2023-04-02T00:43:47;99202.84;;;8.91;96.06
32298;BME280;18782;48.984;8.548;2023-04-02T00:46:18;99198.38;;;8.82;96.85
32298;BME280;18782;48.984;8.548;2023-04-02T00:48:51;99188.19;;;8.85;96.72
32298;BME280;18782;48.984;8.548;2023-04-02T00:51:28;99189.91;;;8.86;96.58
32298;BME280;18782;48.984;8.548;2023-04-02T00:53:59;99195.81;;;8.82;96.80
32298;BME280;18782;48.984;8.548;2023-04-02T00:56:31;99191.59;;;8.84;96.96
32298;BME280;18782;48.984;8.548;2023-04-02T00:58:59;99193.31;;;8.85;96.82
32298;BME280;18782;48.984;8.548;2023-04-02T01:01:33;99193.31;;;8.85;96.39
32298;BME280;18782;48.984;8.548;2023-04-02T01:04:03;99201.00;;;8.83;95.81
32298;BME280;18782;48.984;8.548;2023-04-02T01:06:35;99198.44;;;8.83;95.51
32298;BME280;18782;48.984;8.548;2023-04-02T01:09:17;99195.91;;;8.85;95.60
32298;BME280;18782;48.984;8.548;2023-04-02T01:12:03;99193.41;;;8.88;95.36
32298;BME280;18782;48.984;8.548;2023-04-02T01:14:43;99201.22;;;8.96;95.13
32298;BME280;18782;48.984;8.548;2023-04-02T01:17:22;99210.72;;;8.98;95.27
32298;BME280;18782;48.984;8.548;2023-04-02T01:20:16;99207.28;;;8.99;94.72
32298;BME280;18782;48.984;8.548;2023-04-02T01:22:53;99212.47;;;9.02;93.93
32298;BME280;18782;48.984;8.548;2023-04-02T01:25:25;99207.41;;;9.05;94.31
32298;BME280;18782;48.984;8.548;2023-04-02T01:27:59;99210.06;;;9.10;94.46
32298;BME280;18782;48.984;8.548;2023-04-02T01:30:34;99213.59;;;9.15;94.20
32298;BME280;18782;48.984;8.548;2023-04-02T01:33:03;99212.66;;;9.11;91.56
32298;BME280;18782;48.984;8.548;2023-04-02T01:35:35;99214.47;;;9.19;92.11
32298;BME280;18782;48.984;8.548;2023-04-02T01:38:08;99221.22;;;9.12;89.68
32298;BME280;18782;48.984;8.548;2023-04-02T01:40:43;99217.03;;;9.17;88.80
32298;BME280;18782;48.984;8.548;2023-04-02T01:43:17;99224.72;;;9.15;89.66
32298;BME280;18782;48.984;8.548;2023-04-02T01:45:48;99229.00;;;9.17;89.38
32298;BME280;18782;48.984;8.548;2023-04-02T01:48:18;99229.88;;;9.17;89.48
32298;BME280;18782;48.984;8.548;2023-04-02T01:50:48;99230.72;;;9.18;88.69
32298;BME280;18782;48.984;8.548;2023-04-02T01:53:20;99236.72;;;9.17;88.05
32298;BME280;18782;48.984;8.548;2023-04-02T01:55:51;99233.28;;;9.18;88.37
32298;BME280;18782;48.984;8.548;2023-04-02T01:58:21;99235.09;;;9.22;87.80
32298;BME280;18782;48.984;8.548;2023-04-02T02:00:54;99245.47;;;9.28;87.43
32298;BME280;18782;48.984;8.548;2023-04-02T02:03:24;99246.28;;;9.25;88.00
32298;BME280;18782;48.984;8.548;2023-04-02T02:05:52;99243.56;;;9.18;89.85
32298;BME280;18782;48.984;8.548;2023-04-02T02:08:30;99246.94;;;9.13;91.44
32298;BME280;18782;48.984;8.548;2023-04-02T02:10:58;99244.28;;;9.09;91.56
32298;BME280;18782;48.984;8.548;2023-04-02T02:13:26;99242.66;;;9.14;91.97
32298;BME280;18782;48.984;8.548;2023-04-02T02:15:57;99246.94;;;9.13;92.52
32298;BME280;18782;48.984;8.548;2023-04-02T02:18:26;99252.19;;;9.20;92.40
32298;BME280;18782;48.984;8.548;2023-04-02T02:20:56;99242.78;;;9.20;91.97
32298;BME280;18782;48.984;8.548;2023-04-02T02:23:27;99240.22;;;9.22;91.81
32298;BME280;18782;48.984;8.548;2023-04-02T02:25:57;99249.63;;;9.21;91.84
32298;BME280;18782;48.984;8.548;2023-04-02T02:28:26;99260.94;;;9.31;92.18
32298;BME280;18782;48.984;8.548;2023-04-02T02:31:00;99260.75;;;9.20;91.84
32298;BME280;18782;48.984;8.548;2023-04-02T02:33:31;99262.03;;;8.98;93.81
32298;BME280;18782;48.984;8.548;2023-04-02T02:36:03;99269.56;;;8.91;95.45
32298;BME280;18782;48.984;8.548;2023-04-02T02:38:40;99270.31;;;8.85;95.82
32298;BME280;18782;48.984;8.548;2023-04-02T02:41:19;99272.00;;;8.83;96.89
32298;BME280;18782;48.984;8.548;2023-04-02T02:43:59;99278.75;;;8.78;97.16
32298;BME280;18782;48.984;8.548;2023-04-02T02:46:31;99279.59;;;8.78;97.19
32298;BME280;18782;48.984;8.548;2023-04-02T02:49:04;99283.06;;;8.80;97.21
32298;BME280;18782;48.984;8.548;2023-04-02T02:51:39;99287.44;;;8.86;98.53
32298;BME280;18782;48.984;8.548;2023-04-02T02:54:16;99284.94;;;8.89;97.97
32298;BME280;18782;48.984;8.548;2023-04-02T02:56:51;99284.03;;;8.87;98.34
32298;BME280;18782;48.984;8.548;2023-04-02T02:59:22;99280.69;;;8.91;98.87
32298;BME280;18782;48.984;8.548;2023-04-02T03:01:52;99282.38;;;8.89;98.33
32298;BME280;18782;48.984;8.548;2023-04-02T03:04:21;99285.00;;;8.92;98.61
32298;BME280;18782;48.984;8.548;2023-04-02T03:06:53;99284.84;;;8.83;99.00
32298;BME280;18782;48.984;8.548;2023-04-02T03:09:32;99289.91;;;8.81;99.13
32298;BME280;18782;48.984;8.548;2023-04-02T03:12:06;99294.25;;;8.84;99.43
32298;BME280;18782;48.984;8.548;2023-04-02T03:14:42;99299.44;;;8.87;100.00
32298;BME280;18782;48.984;8.548;2023-04-02T03:17:17;99292.47;;;8.81;99.62
32298;BME280;18782;48.984;8.548;2023-04-02T03:19:51;99297.69;;;8.84;99.99
32298;BME280;18782;48.984;8.548;2023-04-02T03:22:26;99301.94;;;8.82;100.00
32298;BME280;18782;48.984;8.548;2023-04-02T03:25:01;99310.41;;;8.78;100.00
32298;BME280;18782;48.984;8.548;2023-04-02T03:27:33;99315.44;;;8.75;100.00
32298;BME280;18782;48.984;8.548;2023-04-02T03:30:26;99318.03;;;8.77;100.00
32298;BME280;18782;48.984;8.548;2023-04-02T03:33:00;99323.16;;;8.75;100.00
32298;BME280;18782;48.984;8.548;2023-04-02T03:35:33;99317.16;;;8.75;100.00
32298;BME280;18782;48.984;8.548;2023-04-02T03:38:03;99321.53;;;8.79;100.00
32298;BME280;18782;48.984;8.548;2023-04-02T03:40:36;99320.59;;;8.77;100.00
32298;BME280;18782;48.984;8.548;2023-04-02T03:43:14;99331.84;;;8.82;100.00
32298;BME280;18782;48.984;8.548;2023-04-02T03:45:47;99323.31;;;8.83;100.00
32298;BME280;18782;48.984;8.548;2023-04-02T03:48:21;99325.84;;;8.81;100.00
32298;BME280;18782;48.984;8.548;2023-04-02T03:50:54;99330.19;;;8.84;100.00
32298;BME280;18782;48.984;8.548;2023-04-02T03:53:25;99329.44;;;8.88;100.00
32298;BME280;18782;48.984;8.548;2023-04-02T03:55:55;99334.72;;;8.97;100.00
32298;BME280;18782;48.984;8.548;2023-04-02T03:58:27;99336.50;;;8.98;100.00
32298;BME280;18782;48.984;8.548;2023-04-02T04:01:02;99340.78;;;8.99;100.00
32298;BME280;18782;48.984;8.548;2023-04-02T04:03:40;99342.50;;;9.00;100.00
32298;BME280;18782;48.984;8.548;2023-04-02T04:06:14;99341.66;;;9.01;100.00
32298;BME280;18782;48.984;8.548;2023-04-02T04:08:49;99354.56;;;9.04;100.00
32298;BME280;18782;48.984;8.548;2023-04-02T04:11:23;99342.50;;;9.00;100.00
32298;BME280;18782;48.984;8.548;2023-04-02T04:13:56;99351.03;;;8.99;99.35
32298;BME280;18782;48.984;8.548;2023-04-02T04:16:30;99351.09;;;9.02;99.97
32298;BME280;18782;48.984;8.548;2023-04-02T04:19:03;99353.50;;;8.95;99.05
32298;BME280;18782;48.984;8.548;2023-04-02T04:21:33;99358.69;;;8.98;99.29
32298;BME280;18782;48.984;8.548;2023-04-02T04:24:16;99364.66;;;8.95;98.63
32298;BME280;18782;48.984;8.548;2023-04-02T04:26:51;99361.13;;;8.92;98.61
32298;BME280;18782;48.984;8.548;2023-04-02T04:29:32;99362.97;;;8.97;99.21
32298;BME280;18782;48.984;8.548;2023-04-02T04:32:16;99371.59;;;8.99;99.19
32298;BME280;18782;48.984;8.548;2023-04-02T04:34:59;99375.75;;;8.94;98.89
32298;BME280;18782;48.984;8.548;2023-04-02T04:37:32;99382.63;;;8.95;98.86
32298;BME280;18782;48.984;8.548;2023-04-02T04:40:09;99384.31;;;8.95;98.87
32298;BME280;18782;48.984;8.548;2023-04-02T04:42:41;99371.50;;;8.96;98.41
32298;BME280;18782;48.984;8.548;2023-04-02T04:45:21;99386.84;;;8.93;98.65
32298;BME280;18782;48.984;8.548;2023-04-02T04:47:59;99389.44;;;8.95;98.35
32298;BME280;18782;48.984;8.548;2023-04-02T04:50:33;99393.78;;;8.97;98.75
32298;BME280;18782;48.984;8.548;2023-04-02T04:53:05;99398.91;;;8.97;98.66
32298;BME280;18782;48.984;8.548;2023-04-02T04:55:37;99402.44;;;9.02;98.85
32298;BME280;18782;48.984;8.548;2023-04-02T04:58:15;99401.63;;;9.03;98.65
32298;BME280;18782;48.984;8.548;2023-04-02T05:00:52;99407.69;;;9.07;98.92
32298;BME280;18782;48.984;8.548;2023-04-02T05:03:29;99412.88;;;9.08;98.52
32298;BME280;18782;48.984;8.548;2023-04-02T05:06:04;99419.78;;;9.12;98.78
32298;BME280;18782;48.984;8.548;2023-04-02T05:08:37;99417.91;;;9.05;97.48
32298;BME280;18782;48.984;8.548;2023-04-02T05:11:11;99425.66;;;9.07;97.76
32298;BME280;18782;48.984;8.548;2023-04-02T05:13:43;99419.66;;;9.06;97.15
32298;BME280;18782;48.984;8.548;2023-04-02T05:16:21;99424.72;;;9.03;97.63
32298;BME280;18782;48.984;8.548;2023-04-02T05:18:55;99430.53;;;8.95;97.39
32298;BME280;18782;48.984;8.548;2023-04-02T05:21:32;99439.97;;;8.97;97.07
32298;BME280;18782;48.984;8.548;2023-04-02T05:24:28;99433.13;;;8.96;97.52
32298;BME280;18782;48.984;8.548;2023-04-02T05:27:04;99445.09;;;8.97;97.59
32298;BME280;18782;48.984;8.548;2023-04-02T05:29:39;99445.19;;;9.00;97.63
32298;BME280;18782;48.984;8.548;2023-04-02T05:32:14;99449.47;;;9.00;97.57
32298;BME280;18782;48.984;8.548;2023-04-02T05:34:47;99446.88;;;8.98;97.39
32298;BME280;18782;48.984;8.548;2023-04-02T05:37:20;99456.25;;;8.98;97.18
32298;BME280;18782;48.984;8.548;2023-04-02T05:39:52;99462.19;;;8.95;97.25
32298;BME280;18782;48.984;8.548;2023-04-02T05:42:22;99465.66;;;8.97;97.66
32298;BME280;18782;48.984;8.548;2023-04-02T05:45:06;99462.94;;;8.91;98.30
32298;BME280;18782;48.984;8.548;2023-04-02T05:47:37;99473.28;;;8.94;98.88
32298;BME280;18782;48.984;8.548;2023-04-02T05:50:20;99468.41;;;9.05;99.19
32298;BME280;18782;48.984;8.548;2023-04-02T05:52:59;99478.72;;;9.08;99.05
32298;BME280;18782;48.984;8.548;2023-04-02T05:55:37;99474.47;;;9.08;99.29
32298;BME280;18782;48.984;8.548;2023-04-02T05:58:14;99474.47;;;9.08;99.14
32298;BME280;18782;48.984;8.548;2023-04-02T06:00:53;99484.88;;;9.14;99.28
32298;BME280;18782;48.984;8.548;2023-04-02T06:03:31;99479.03;;;9.20;99.01
32298;BME280;18782;48.984;8.548;2023-04-02T06:06:06;99493.69;;;9.26;98.56
32298;BME280;18782;48.984;8.548;2023-04-02T06:08:46;99492.59;;;9.14;97.67
32298;BME280;18782;48.984;8.548;2023-04-02T06:11:19;99494.25;;;9.12;97.49
32298;BME280;18782;48.984;8.548;2023-04-02T06:13:50;99498.63;;;9.17;97.46
32298;BME280;18782;48.984;8.548;2023-04-02T06:16:25;99508.97;;;9.20;97.46
32298;BME280;18782;48.984;8.548;2023-04-02T06:18:53;99503.97;;;9.26;97.67
32298;BME280;18782;48.984;8.548;2023-04-02T06:21:21;99501.75;;;9.41;97.65
32298;BME280;18782;48.984;8.548;2023-04-02T06:23:54;99513.31;;;9.61;96.86
32298;BME280;18782;48.984;8.548;2023-04-02T06:26:27;99516.84;;;9.66;95.79
32298;BME280;18782;48.984;8.548;2023-04-02T06:29:03;99525.56;;;9.75;94.62
32298;BME280;18782;48.984;8.548;2023-04-02T06:31:35;99527.31;;;9.76;94.58
32298;BME280;18782;48.984;8.548;2023-04-02T06:34:14;99528.88;;;9.67;94.47
32298;BME280;18782;48.984;8.548;2023-04-02T06:36:53;99543.44;;;9.68;94.20
32298;BME280;18782;48.984;8.548;2023-04-02T06:39:25;99537.41;;;9.66;95.18
32298;BME280;18782;48.984;8.548;2023-04-02T06:41:57;99538.19;;;9.62;94.74
32298;BME280;18782;48.984;8.548;2023-04-02T06:44:52;99540.91;;;9.70;94.55
32298;BME280;18782;48.984;8.548;2023-04-02T06:47:34;99542.56;;;9.66;94.44
32298;BME280;18782;48.984;8.548;2023-04-02T06:50:06;99551.75;;;9.57;94.35
32298;BME280;18782;48.984;8.548;2023-04-02T06:52:37;99556.09;;;9.59;94.85
32298;BME280;18782;48.984;8.548;2023-04-02T06:55:25;99552.84;;;9.68;94.68
32298;BME280;18782;48.984;8.548;2023-04-02T06:57:56;99562.47;;;9.77;94.78
32298;BME280;18782;48.984;8.548;2023-04-02T07:00:30;99568.44;;;9.76;94.43
32298;BME280;18782;48.984;8.548;2023-04-02T07:03:06;99568.72;;;9.89;94.45
32298;BME280;18782;48.984;8.548;2023-04-02T07:05:34;99570.53;;;9.92;93.75
32298;BME280;18782;48.984;8.548;2023-04-02T07:08:02;99577.72;;;10.08;93.52
32298;BME280;18782;48.984;8.548;2023-04-02T07:10:31;99579.25;;;10.00;92.43
32298;BME280;18782;48.984;8.548;2023-04-02T07:13:00;99575.16;;;10.10;92.60
32298;BME280;18782;48.984;8.548;2023-04-02T07:15:28;99583.19;;;10.24;91.91
32298;BME280;18782;48.984;8.548;2023-04-02T07:17:57;99590.41;;;10.43;91.35
32298;BME280;18782;48.984;8.548;2023-04-02T07:20:28;99594.78;;;10.47;90.83
32298;BME280;18782;48.984;8.548;2023-04-02T07:22:59;99599.28;;;10.15;89.86
32298;BME280;18782;48.984;8.548;2023-04-02T07:25:27;99595.25;;;10.28;89.61
32298;BME280;18782;48.984;8.548;2023-04-02T07:27:56;99606.13;;;10.16;89.24
32298;BME280;18782;48.984;8.548;2023-04-02T07:30:23;99608.06;;;10.25;90.04
32298;BME280;18782;48.984;8.548;2023-04-02T07:32:51;99608.56;;;10.08;89.73
32298;BME280;18782;48.984;8.548;2023-04-02T07:35:19;99612.28;;;10.23;89.69
32298;BME280;18782;48.984;8.548;2023-04-02T07:37:46;99617.63;;;10.32;89.70
32298;BME280;18782;48.984;8.548;2023-04-02T07:40:15;99619.56;;;10.42;89.84
32298;BME280;18782;48.984;8.548;2023-04-02T07:42:44;99624.72;;;10.42;88.67
32298;BME280;18782;48.984;8.548;2023-04-02T07:45:13;99628.91;;;10.38;87.81
32298;BME280;18782;48.984;8.548;2023-04-02T07:47:41;99631.44;;;10.34;88.26
32298;BME280;18782;48.984;8.548;2023-04-02T07:50:09;99632.97;;;10.26;89.28
32298;BME280;18782;48.984;8.548;2023-04-02T07:52:38;99628.75;;;10.29;89.18
32298;BME280;18782;48.984;8.548;2023-04-02T07:55:08;99637.28;;;10.28;89.13
32298;BME280;18782;48.984;8.548;2023-04-02T07:57:38;99645.25;;;10.39;89.19
32298;BME280;18782;48.984;8.548;2023-04-02T08:00:10;99650.19;;;10.30;88.56
32298;BME280;18782;48.984;8.548;2023-04-02T08:02:40;99650.13;;;10.27;89.18
32298;BME280;18782;48.984;8.548;2023-04-02T08:05:08;99657.31;;;10.43;89.18
32298;BME280;18782;48.984;8.548;2023-04-02T08:07:37;99659.44;;;10.62;88.30
32298;BME280;18782;48.984;8.548;2023-04-02T08:10:07;99664.66;;;10.65;86.59
32298;BME280;18782;48.984;8.548;2023-04-02T08:12:35;99663.06;;;10.74;85.55
32298;BME280;18782;48.984;8.548;2023-04-02T08:15:04;99669.16;;;10.77;85.82
32298;BME280;18782;48.984;8.548;2023-04-02T08:17:32;99673.56;;;10.83;85.40
32298;BME280;18782;48.984;8.548;2023-04-02T08:20:01;99679.59;;;10.85;85.37
32298;BME280;18782;48.984;8.548;2023-04-02T08:22:29;99682.16;;;10.85;85.32
32298;BME280;18782;48.984;8.548;2023-04-02T08:24:57;99677.41;;;11.06;84.53
32298;BME280;18782;48.984;8.548;2023-04-02T08:27:25;99690.13;;;10.97;84.01
32298;BME280;18782;48.984;8.548;2023-04-02T08:29:53;99684.25;;;11.04;84.40
32298;BME280;18782;48.984;8.548;2023-04-02T08:32:20;99695.69;;;11.20;84.45
32298;BME280;18782;48.984;8.548;2023-04-02T08:34:49;99688.06;;;11.24;83.93
32298;BME280;18782;48.984;8.548;2023-04-02T08:37:18;99694.00;;;11.22;82.90
32298;BME280;18782;48.984;8.548;2023-04-02T08:39:46;99698.38;;;11.26;82.03
32298;BME280;18782;48.984;8.548;2023-04-02T08:42:19;99709.56;;;11.27;81.77
32298;BME280;18782;48.984;8.548;2023-04-02T08:44:56;99711.09;;;11.17;82.29
32298;BME280;18782;48.984;8.548;2023-04-02T08:47:50;99717.19;;;11.22;82.51
32298;BME280;18782;48.984;8.548;2023-04-02T08:50:27;99722.44;;;11.27;82.72
32298;BME280;18782;48.984;8.548;2023-04-02T08:52:59;99712.19;;;11.30;82.01
32298;BME280;18782;48.984;8.548;2023-04-02T08:55:34;99717.63;;;11.45;81.69
32298;BME280;18782;48.984;8.548;2023-04-02T08:58:10;99722.69;;;11.42;80.71
32298;BME280;18782;48.984;8.548;2023-04-02T09:00:44;99722.81;;;11.48;79.93
32298;BME280;18782;48.984;8.548;2023-04-02T09:03:16;99728.88;;;11.52;80.73
32298;BME280;18782;48.984;8.548;2023-04-02T09:05:45;99731.63;;;11.59;80.14
32298;BME280;18782;48.984;8.548;2023-04-02T09:08:18;99740.16;;;11.58;80.13
32298;BME280;18782;48.984;8.548;2023-04-02T09:10:50;99745.44;;;11.64;78.30
32298;BME280;18782;48.984;8.548;2023-04-02T09:13:23;99747.19;;;11.65;78.45
32298;BME280;18782;48.984;8.548;2023-04-02T09:15:55;99754.00;;;11.63;77.80
32298;BME280;18782;48.984;8.548;2023-04-02T09:18:27;99755.06;;;11.74;77.49
32298;BME280;18782;48.984;8.548;2023-04-02T09:20:56;99756.16;;;11.86;77.07
32298;BME280;18782;48.984;8.548;2023-04-02T09:23:26;99748.56;;;11.96;76.29
32298;BME280;18782;48.984;8.548;2023-04-02T09:25:54;99752.91;;;12.00;76.15
32298;BME280;18782;48.984;8.548;2023-04-02T09:28:30;99750.31;;;11.97;76.35
32298;BME280;18782;48.984;8.548;2023-04-02T09:31:04;99758.31;;;12.14;75.62
32298;BME280;18782;48.984;8.548;2023-04-02T09:33:42;99764.63;;;12.33;75.42
32298;BME280;18782;48.984;8.548;2023-04-02T09:36:17;99769.22;;;12.54;73.52
32298;BME280;18782;48.984;8.548;2023-04-02T09:38:58;99775.00;;;12.38;71.57
32298;BME280;18782;48.984;8.548;2023-04-02T09:41:28;99766.03;;;12.14;72.48
32298;BME280;18782;48.984;8.548;2023-04-02T09:44:18;99780.50;;;12.05;74.62
32298;BME280;18782;48.984;8.548;2023-04-02T09:46:48;99770.56;;;12.31;74.18
32298;BME280;18782;48.984;8.548;2023-04-02T09:49:16;99780.97;;;12.35;73.71
32298;BME280;18782;48.984;8.548;2023-04-02T09:51:44;99779.56;;;12.57;73.75
32298;BME280;18782;48.984;8.548;2023-04-02T09:54:15;99786.91;;;12.92;72.54
32298;BME280;18782;48.984;8.548;2023-04-02T09:56:58;99783.75;;;13.17;70.68
32298;BME280;18782;48.984;8.548;2023-04-02T09:59:27;99785.81;;;13.43;69.58
32298;BME280;18782;48.984;8.548;2023-04-02T10:01:58;99791.13;;;13.58;68.00
32298;BME280;18782;48.984;8.548;2023-04-02T10:04:33;99784.34;;;13.69;68.43
32298;BME280;18782;48.984;8.548;2023-04-02T10:07:02;99797.81;;;13.41;68.32
32298;BME280;18782;48.984;8.548;2023-04-02T10:09:34;99791.13;;;13.58;67.95
32298;BME280;18782;48.984;8.548;2023-04-02T10:12:05;99801.38;;;13.52;68.23
32298;BME280;18782;48.984;8.548;2023-04-02T10:14:36;99809.13;;;13.50;67.55
32298;BME280;18782;48.984;8.548;2023-04-02T10:17:09;99803.03;;;13.44;67.14
32298;BME280;18782;48.984;8.548;2023-04-02T10:19:40;99803.09;;;13.50;66.93
32298;BME280;18782;48.984;8.548;2023-04-02T10:22:12;99812.03;;;13.79;66.35
32298;BME280;18782;48.984;8.548;2023-04-02T10:24:43;99810.50;;;14.03;64.35
32298;BME280;18782;48.984;8.548;2023-04-02T10:27:17;99817.59;;;14.25;64.42
32298;BME280;18782;48.984;8.548;2023-04-02T10:29:57;99816.81;;;14.35;62.68
32298;BME280;18782;48.984;8.548;2023-04-02T10:32:31;99824.44;;;14.20;62.37
32298;BME280;18782;48.984;8.548;2023-04-02T10:35:03;99817.59;;;14.28;65.62
32298;BME280;18782;48.984;8.548;2023-04-02T10:37:58;99816.81;;;14.37;60.84
32298;BME280;18782;48.984;8.548;2023-04-02T10:40:34;99814.25;;;14.42;65.04
32298;BME280;18782;48.984;8.548;2023-04-02T10:43:23;99813.28;;;14.29;61.02
32298;BME280;18782;48.984;8.548;2023-04-02T10:45:55;99828.09;;;14.47;62.50
32298;BME280;18782;48.984;8.548;2023-04-02T10:48:31;99829.00;;;14.47;63.74
32298;BME280;18782;48.984;8.548;2023-04-02T10:51:06;99828.16;;;14.53;66.62
32298;BME280;18782;48.984;8.548;2023-04-02T10:53:44;99834.16;;;14.47;63.04
32298;BME280;18782;48.984;8.548;2023-04-02T10:56:16;99838.50;;;14.50;65.03
32298;BME280;18782;48.984;8.548;2023-04-02T10:58:51;99838.59;;;14.62;64.03
32298;BME280;18782;48.984;8.548;2023-04-02T11:01:25;99840.34;;;14.69;63.18
32298;BME280;18782;48.984;8.548;2023-04-02T11:03:58;99846.47;;;14.79;65.14
32298;BME280;18782;48.984;8.548;2023-04-02T11:06:30;99843.94;;;14.91;64.66
32298;BME280;18782;48.984;8.548;2023-04-02T11:09:02;99847.47;;;15.05;64.97
32298;BME280;18782;48.984;8.548;2023-04-02T11:11:37;99856.94;;;15.03;63.79
32298;BME280;18782;48.984;8.548;2023-04-02T11:14:11;99852.63;;;15.01;63.11
32298;BME280;18782;48.984;8.548;2023-04-02T11:16:40;99857.00;;;15.14;63.68
32298;BME280;18782;48.984;8.548;2023-04-02T11:19:22;99852.63;;;15.07;62.55
32298;BME280;18782;48.984;8.548;2023-04-02T11:21:51;99857.00;;;15.17;62.55
32298;BME280;18782;48.984;8.548;2023-04-02T11:24:34;99861.28;;;15.06;59.21
32298;BME280;18782;48.984;8.548;2023-04-02T11:27:10;99861.22;;;14.97;60.05
32298;BME280;18782;48.984;8.548;2023-04-02T11:29:41;99862.75;;;14.61;59.58
32298;BME280;18782;48.984;8.548;2023-04-02T11:32:30;99867.91;;;14.58;60.40
32298;BME280;18782;48.984;8.548;2023-04-02T11:35:22;99864.50;;;14.65;60.74
32298;BME280;18782;48.984;8.548;2023-04-02T11:37:52;99879.25;;;14.75;60.45
32298;BME280;18782;48.984;8.548;2023-04-02T11:43:50;99885.22;;;14.67;61.79
32298;BME280;18782;48.984;8.548;2023-04-02T11:46:40;99886.09;;;14.64;62.61
32298;BME280;18782;48.984;8.548;2023-04-02T11:49:33;99882.69;;;14.73;61.87
32298;BME280;18782;48.984;8.548;2023-04-02T11:52:02;99888.03;;;14.99;60.31
32298;BME280;18782;48.984;8.548;2023-04-02T11:54:38;99882.03;;;15.12;60.42
32298;BME280;18782;48.984;8.548;2023-04-02T11:57:17;99878.69;;;15.30;59.14
32298;BME280;18782;48.984;8.548;2023-04-02T12:00:02;99892.63;;;15.58;57.16
32298;BME280;18782;48.984;8.548;2023-04-02T12:02:44;99891.81;;;15.76;57.56
32298;BME280;18782;48.984;8.548;2023-04-02T12:05:21;99892.69;;;15.76;57.20
32298;BME280;18782;48.984;8.548;2023-04-02T12:07:59;99893.53;;;15.64;57.08
32298;BME280;18782;48.984;8.548;2023-04-02T12:10:47;99897.75;;;15.50;57.47
32298;BME280;18782;48.984;8.548;2023-04-02T12:13:17;99904.63;;;15.34;59.01
32298;BME280;18782;48.984;8.548;2023-04-02T12:15:47;99908.09;;;15.36;61.34
32298;BME280;18782;48.984;8.548;2023-04-02T12:18:18;99909.69;;;15.13;63.00
32298;BME280;18782;48.984;8.548;2023-04-02T12:20:49;99907.81;;;14.87;64.07
32298;BME280;18782;48.984;8.548;2023-04-02T12:23:19;99912.94;;;14.72;65.28
32298;BME280;18782;48.984;8.548;2023-04-02T12:25:56;99920.59;;;14.60;66.14
32298;BME280;18782;48.984;8.548;2023-04-02T12:28:27;99922.16;;;14.44;66.95
32298;BME280;18782;48.984;8.548;2023-04-02T12:31:04;99922.78;;;14.19;67.84
32298;BME280;18782;48.984;8.548;2023-04-02T12:33:39;99923.59;;;14.10;67.83
32298;BME280;18782;48.984;8.548;2023-04-02T12:36:17;99929.53;;;14.00;68.41
32298;BME280;18782;48.984;8.548;2023-04-02T12:38:47;99938.06;;;13.93;68.60
32298;BME280;18782;48.984;8.548;2023-04-02T12:41:21;99936.16;;;13.76;68.31
32298;BME280;18782;48.984;8.548;2023-04-02T12:43:56;99941.19;;;13.64;68.37
32298;BME280;18782;48.984;8.548;2023-04-02T12:46:26;99941.03;;;13.52;68.85
32298;BME280;18782;48.984;8.548;2023-04-02T12:48:58;99937.44;;;13.41;69.53
32298;BME280;18782;48.984;8.548;2023-04-02T12:51:28;99942.66;;;13.42;70.34
32298;BME280;18782;48.984;8.548;2023-04-02T12:53:56;99944.41;;;13.45;69.66
32298;BME280;18782;48.984;8.548;2023-04-02T12:56:23;99944.41;;;13.45;70.30
32298;BME280;18782;48.984;8.548;2023-04-02T12:58:52;99952.28;;;13.54;70.13
32298;BME280;18782;48.984;8.548;2023-04-02T13:01:21;99954.88;;;13.54;70.65
32298;BME280;18782;48.984;8.548;2023-04-02T13:04:02;99950.63;;;13.59;70.12
32298;BME280;18782;48.984;8.548;2023-04-02T13:06:30;99951.66;;;13.75;70.22
32298;BME280;18782;48.984;8.548;2023-04-02T13:08:59;99950.88;;;13.82;69.51
32298;BME280;18782;48.984;8.548;2023-04-02T13:11:33;99953.53;;;13.87;69.13
32298;BME280;18782;48.984;8.548;2023-04-02T13:14:03;99955.34;;;13.95;68.52
32298;BME280;18782;48.984;8.548;2023-04-02T13:16:34;99957.94;;;13.97;68.40
32298;BME280;18782;48.984;8.548;2023-04-02T13:19:25;99962.31;;;14.04;67.22
32298;BME280;18782;48.984;8.548;2023-04-02T13:21:54;99963.22;;;14.04;65.97
32298;BME280;18782;48.984;8.548;2023-04-02T13:24:24;99964.81;;;13.93;65.90
32298;BME280;18782;48.984;8.548;2023-04-02T13:26:54;99960.66;;;13.36;74.98
32298;BME280;18782;48.984;8.548;2023-04-02T13:29:25;99980.38;;;13.29;76.59
32298;BME280;18782;48.984;8.548;2023-04-02T13:31:56;99976.94;;;13.27;76.84
32298;BME280;18782;48.984;8.548;2023-04-02T13:34:25;99978.41;;;13.13;77.55
32298;BME280;18782;48.984;8.548;2023-04-02T13:36:53;99989.97;;;12.80;79.57
32298;BME280;18782;48.984;8.548;2023-04-02T13:39:22;99986.31;;;12.68;80.99
32298;BME280;18782;48.984;8.548;2023-04-02T13:41:51;99989.81;;;12.71;81.51